WEATHER DATA

YESTERDAY
Time Temp. Dewp. Hum. Wind dir Wind speed Wind gust Bar. 1h Prec. 24h Prec.
00:00 14.2 12.4 89 163 1.1 1.4 1009.3 0.0000 0.0000
00:10 14.1 12.3 89 173 1.1 1.4 1009.2 0.0000 0.0000
00:20 14.1 12.5 90 167 0.8 1.4 1009.1 0.0000 0.0000
00:30 14.1 12.5 90 161 1.1 1.4 1009.1 0.0000 0.0000
00:40 14 12.4 90 166 1.1 1.4 1009.1 0.0000 0.0000
00:51 14.2 12.8 91 177 1.7 2.5 1009.1 0.0000 0.0000
01:00 14.5 13.2 92 170 1.7 2.5 1009 0.0000 0.0000
01:10 14.7 13.4 92 173 1.7 2.8 1008.9 0.0000 0.0000
01:21 14.9 13.6 92 175 1.7 2.5 1008.9 0.0000 0.0000
01:31 14.9 13.6 92 168 2.2 3.3 1008.8 0.0000 0.0000
01:41 15 13.7 92 174 1.7 3.3 1008.8 0.0000 0.0000
01:51 15.1 13.8 92 181 1.7 3.3 1008.7 0.0000 0.0000
02:01 14.9 13.4 91 177 1.4 2.2 1008.6 0.0000 0.0000
02:11 14.6 13.1 91 172 1.7 2.8 1008.6 0.0000 0.0000
02:21 14.4 13 91 184 1.4 2.5 1008.5 0.0000 0.0000
02:31 14.5 13 91 178 1.4 2.2 1008.4 0.0000 0.0000
02:42 14.4 13 91 189 1.4 2.2 1008.4 0.0000 0.0000
02:51 14.5 13.2 92 174 1.7 3.3 1008.4 0.0000 0.0000
03:01 14.8 13.5 92 177 2.2 3.6 1008.3 0.0000 0.0000
03:12 14.9 13.6 92 178 1.7 2.8 1008.3 0.0000 0.0000
03:22 15.1 13.8 92 188 2.2 3.3 1008.3 0.0000 0.0000
03:32 15.1 13.8 92 188 2.2 3.3 1008.2 0.0000 0.0000
03:42 15.2 13.9 92 180 1.7 3.3 1008.1 0.0000 0.0000
03:52 15.2 13.9 92 182 2.2 3.6 1008 0.0000 0.0000
04:02 15.3 14 92 188 2.2 3.3 1008 0.0000 0.0000
04:12 15.3 14 92 178 1.7 3.6 1007.9 0.0000 0.0000
04:23 15.3 14 92 182 1.7 3.3 1008 0.0000 0.0000
04:32 15.4 14.1 92 180 1.4 2.5 1007.9 0.0000 0.0000
04:42 15.3 14 92 176 1.4 2.2 1007.9 0.0000 0.0000
04:52 15.2 13.9 92 182 1.1 1.7 1007.8 0.0000 0.0000
05:03 15.2 13.9 92 176 1.7 2.5 1007.7 0.0000 0.0000
05:13 15.2 13.9 92 174 1.7 2.5 1007.7 0.0000 0.0000
05:22 15 13.7 92 171 2.2 2.8 1007.7 0.0000 0.0000
05:33 15 13.7 92 174 2.2 2.8 1007.8 0.0000 0.0000
05:43 15 13.7 92 176 1.7 3.3 1007.7 0.0000 0.0000
05:53 15.1 13.8 92 183 2.2 3.6 1007.8 0.0000 0.0000
06:03 15.1 13.8 92 183 2.5 3.9 1007.9 0.0000 0.0000
06:13 15.2 13.9 92 186 1.7 3.3 1007.9 0.0000 0.0000
06:23 15.1 13.8 92 181 2.2 2.8 1007.9 0.0000 0.0000
06:33 15.2 13.9 92 183 2.2 3.3 1007.8 0.0000 0.0000
06:44 15.3 14 92 189 1.7 3.3 1007.8 0.0000 0.0000
06:54 15.4 14.1 92 188 1.7 3.3 1007.8 0.0000 0.0000
07:03 15.5 14.2 92 181 2.2 3.3 1007.8 0.0000 0.0000
07:13 15.6 14.3 92 184 2.2 3.3 1007.8 0.0000 0.0000
07:24 15.7 14.6 93 182 1.7 2.8 1007.8 0.0000 0.0000
07:34 15.9 14.8 93 187 2.2 3.6 1007.8 0.0000 0.0000
07:44 16 14.9 93 188 2.2 3.3 1007.8 0.0000 0.0000
07:54 16.1 15 93 191 2.5 3.9 1007.8 0.0000 0.0000
08:04 16.2 15.1 93 188 2.5 3.9 1007.8 0.0000 0.0000
08:14 16.3 15 92 192 2.5 4.7 1007.9 0.0000 0.0000
08:24 16.4 15.1 92 192 2.8 4.4 1007.9 0.0000 0.0000
08:35 16.6 15.3 92 187 2.8 5.3 1008 0.0000 0.0000
08:44 16.8 15.5 92 189 2.8 4.4 1008 0.0000 0.0000
08:54 17 15.7 92 187 2.5 3.9 1008 0.0000 0.0000
09:05 17.2 15.7 91 188 2.5 4.4 1007.9 0.0000 0.0000
09:15 17.4 15.7 90 192 2.5 4.7 1008 0.0000 0.0000
09:25 17.6 15.9 90 193 2.5 4.4 1008.1 0.0000 0.0000
09:45 17.9 15.9 88 183 2.8 4.4 1008 0.0000 0.0000
09:55 18 15.8 87 186 1.7 3.9 1008.2 0.1010 0.1000
09:56 18 15.8 87 191 1.4 3.3 1008.3 0.3030 0.3000
10:06 16.9 14.4 85 215 1.7 4.7 1008.4 8.8920 8.9000
10:16 16.4 14.2 87 347 1.4 4.4 1008.5 10.1040 10.1000
10:26 15.9 13.6 86 341 2.8 7.8 1008.4 12.5290 12.5000
10:36 15.4 13.4 88 352 1.4 3.9 1008.4 12.6300 12.6000
10:46 15.4 13.6 89 180 0.8 1.4 1008.6 12.5290 12.6000
10:56 15.6 14 90 336 0.8 1.4 1008.8 6.1630 12.6000
11:07 16 14.7 92 335 1.1 2.5 1008.9 2.7280 12.6000
11:16 16.3 15 92 213 0.8 1.7 1008.8 1.4150 12.6000
11:26 16.6 15.1 91 202 1.1 2.5 1008.9 0.0000 12.6000
11:39 16.8 15.2 90 194 1.1 3.3 1008.9 0.3030 12.9000
11:49 16.7 15.1 90 4 1.4 2.5 1008.9 1.1110 13.7000
11:59 16.8 15.2 90 7 1.7 3.3 1009 1.3130 13.9000
12:09 16.9 15.3 90 15 1.4 2.8 1009 1.3130 13.9000
12:19 17.1 15.4 90 135 1.1 2.5 1009 1.3130 13.9000
12:30 17.4 15.6 89 181 1.1 2.8 1008.9 1.3130 13.9000
12:40 17.5 15.5 88 40 0.8 1.7 1008.9 0.3030 13.9000
12:49 17.8 15.6 87 352 1.7 4.4 1008.9 0.0000 13.9000
12:59 18.3 15.4 83 358 1.7 3.6 1009 0.0000 13.9000
13:10 18.7 15.2 80 350 1.7 3.6 1009 0.0000 13.9000
13:20 18.9 15 78 349 2.2 3.3 1009.1 0.0000 13.9000
13:30 18.9 14.8 77 351 2.2 4.7 1009.1 0.0000 13.9000
13:40 18.6 14.5 77 352 2.2 5 1009.2 0.0000 13.9000
13:50 18.5 14.6 78 355 1.7 5 1009.3 0.0000 13.9000
14:00 18.2 14.5 79 353 2.2 4.7 1009.4 0.0000 13.9000
14:10 18.2 14.5 79 348 2.8 5.3 1009.5 0.0000 13.9000
14:21 18.1 14.8 81 348 2.2 4.4 1009.6 0.0000 13.9000
14:30 17.7 14.4 81 352 2.8 4.7 1009.6 0.0000 13.9000
14:40 17.7 14.6 82 350 2.5 4.7 1009.7 0.0000 13.9000
14:51 18.1 15 82 344 1.7 3.3 1009.8 0.0000 13.9000
15:01 18.3 14.4 78 350 1.7 4.7 1009.8 0.0000 13.9000
15:11 18.3 14 76 350 2.2 4.4 1009.9 0.0000 13.9000
15:20 18.4 14.1 76 348 1.7 5 1009.9 0.0000 13.9000
15:31 18.3 14 76 351 1.7 3.9 1010 0.0000 13.9000
15:41 18.8 14.1 74 346 1.7 3.9 1009.9 0.0000 13.9000
15:51 19.1 14.4 74 347 2.2 3.9 1010 0.0000 13.9000
16:02 19.1 13.9 72 351 2.8 7.2 1010.2 0.0000 13.9000
16:12 18.8 14.1 74 354 2.2 4.7 1010.4 0.0000 13.9000
16:21 18.5 13.6 73 356 2.2 4.7 1010.3 0.0000 13.9000
16:31 18.6 13.9 74 348 2.5 5 1010.3 0.0000 13.9000
16:42 18.6 13.9 74 349 2.8 5 1010.3 0.0000 13.9000
16:52 18.2 13.5 74 354 2.5 5.3 1010.5 0.0000 13.9000
17:02 17.9 13.2 74 350 2.2 5.3 1010.7 0.0000 13.9000
17:12 17.9 13.4 75 352 2.5 5 1010.7 0.0000 13.9000
17:22 17.9 13.2 74 349 2.8 5 1010.7 0.0000 13.9000
17:32 17.7 13 74 353 2.5 5.8 1010.8 0.0000 13.9000
17:42 17.7 13 74 348 2.8 6.9 1010.9 0.0000 13.9000
17:53 17.6 12.7 73 358 2.5 4.4 1011.1 0.0000 13.9000
18:02 17.7 13 74 347 2.2 4.4 1011.1 0.0000 13.9000
18:12 17.5 12.6 73 352 2.5 5 1011 0.0000 13.9000
18:22 17.6 12.9 74 349 2.2 3.6 1011 0.0000 13.9000
18:33 17.5 12.6 73 356 2.2 4.7 1011 0.0000 13.9000
18:43 17.6 12.7 73 353 2.5 5 1010.9 0.0000 13.9000
18:52 17.5 12.4 72 354 1.7 3.9 1011 0.0000 13.9000
19:03 17.5 12.6 73 352 2.2 4.4 1011.1 0.0000 13.9000
19:13 17.4 12.7 74 347 2.5 5 1011.2 0.0000 13.9000
19:23 17.2 12.3 73 351 2.5 5.8 1011.3 0.0000 13.9000
19:33 16.9 12 73 352 2.2 5 1011.4 0.0000 13.9000
19:43 16.7 11.8 73 351 2.2 4.4 1011.5 0.0000 13.9000
19:53 16.6 12 74 353 2.2 5 1011.5 0.0000 13.9000
20:03 16.5 11.9 74 353 1.7 3.3 1011.5 0.0000 13.9000
20:14 16.4 11.8 74 350 1.7 3.9 1011.6 0.0000 13.9000
20:24 16.2 12 76 350 1.7 3.3 1011.7 0.0000 13.9000
20:34 16 12 77 356 1.4 2.5 1011.8 0.0000 13.9000
20:43 15.8 11.8 77 348 1.4 3.3 1011.9 0.0000 13.9000
20:54 15.6 11.6 77 355 1.7 3.3 1012.1 0.0000 13.9000
21:04 15.2 11.4 78 351 1.4 2.5 1012.3 0.0000 13.9000
21:14 14.9 11.1 78 351 1.4 2.5 1012.3 0.0000 13.9000
21:25 14.6 11 79 358 1.4 3.6 1012.4 0.0000 13.9000
21:34 14.4 11 80 348 1.4 2.2 1012.4 0.0000 13.9000
21:44 14.2 11 81 0 1.1 2.2 1012.4 0.0000 13.9000
21:54 14.1 10.9 81 354 0.8 1.4 1012.5 0.0000 13.9000
22:05 13.8 10.8 82 353 1.1 1.7 1012.6 0.0000 13.9000
22:15 13.6 10.6 82 348 1.1 1.7 1012.7 0.0000 13.9000
22:24 13.4 10.6 83 1 0.8 1.4 1012.7 0.0000 13.9000
22:35 13.3 10.5 83 154 0.3 1.1 1012.7 0.0000 13.9000
22:45 13 10.2 83 90 0.3 1.1 1012.8 0.0000 13.9000
22:55 12.6 9.8 83 147 0.8 1.1 1012.8 0.0000 13.9000
23:05 12.3 9.7 84 0.3 0.8 1012.8 0.0000 13.9000
23:15 12.2 9.8 85 144 0.3 1.1 1012.8 0.0000 13.9000
23:25 12 9.6 85 135 0.3 1.1 1012.9 0.0000 13.9000
23:35 11.8 9.5 86 169 0.8 1.1 1012.9 0.0000 13.9000
23:45 11.6 9.3 86 158 0.8 1.1 1012.9 0.0000 13.9000
23:56 11.4 9.3 87 135 0.3 1.4 1013 0.0000

DAY STATISTIC

2021-08-01
TEMPERATURE
AVERAGE
16.1
HIGH
19.1
15:51
LOW
11.4
23:56
PRESSURE
AVERAGE
1009.6
HIGH
1013.0
23:56
LOW
1007.7
05:03
DEWPOINT
AVERAGE
13.4
HIGH
15.9
09:25
LOW
9.3
23:45
HUMIDITY
AVERAGE
85
HIGH
93
07:24
LOW
72
16:02
WIND SPEED
AVERAGE
1.8
HIGH
2.8
08:24
WIND GUST
AVERAGE
3.4
HIGH
7.8
10:26
WIND DIRECTION
PREVAILING
S
46.2%
N
44.8
NE
0.7
E
0.7
SE
4.2
S
46.2
SW
1.4
W
0.0
NW
1.4
PRECIPITATION
RAIN HOUR
12.6
RAIN DAY
13.9
TEMPERATURE (°C)
LOW
11.4
HIGH
19.1
AVERAGE
16.1
PRESSURE (hpa)
LOW
1007.7
HIGH
1013.0
AVERAGE
1009.6
DEVICE